Terminal Aerodrome Forecast
Issued by NWS

Home | Current Version | Previous Version | Text Only | Print | Product List | Glossary On
Versions: 1 2 3 4 5 6 7 8 9 10 11 12 13
000
FTUS45 KGGW 051141
TAFGDV
TAF
KGDV 051141Z 0512/0612 30025KT P6SM OVC015
     FM051800 32021G29KT P6SM VCSH OVC010
     FM060100 31019G28KT P6SM OVC025
     FM060800 31015KT P6SM BKN030=

USA.gov is the U.S. government's official web portal to all federal, state and local government web resources and services.